createdAt,value
2018-09-26T00:00:43.702Z,99.99
2018-09-26T00:01:43.717Z,99.99
2018-09-26T00:02:43.478Z,99.99
2018-09-26T00:03:43.850Z,99.99
2018-09-26T00:04:58.426Z,99.99
2018-09-26T00:05:43.783Z,99.99
2018-09-26T00:06:43.800Z,99.99
2018-09-26T00:07:43.816Z,99.99
2018-09-26T00:08:43.838Z,99.99
2018-09-26T00:09:43.849Z,99.99
2018-09-26T00:10:43.867Z,99.99
2018-09-26T00:11:43.883Z,99.99
2018-09-26T00:13:43.914Z,99.99
2018-09-26T00:14:43.935Z,99.99
2018-09-26T00:15:43.948Z,99.99
2018-09-26T00:16:43.976Z,99.99
2018-09-26T00:17:43.981Z,99.99
2018-09-26T00:18:44.001Z,99.99
2018-09-26T00:19:44.013Z,99.99
2018-09-26T00:20:58.692Z,99.99
2018-09-26T00:21:44.047Z,99.99
2018-09-26T00:22:44.070Z,99.99
2018-09-26T00:23:44.092Z,99.99
2018-09-26T00:24:44.097Z,99.99
2018-09-26T00:25:44.114Z,99.99
2018-09-26T00:26:44.126Z,99.99
2018-09-26T00:27:43.889Z,99.99
2018-09-26T00:28:44.165Z,99.99
2018-09-26T00:29:44.178Z,99.99
2018-09-26T00:30:44.198Z,99.99
2018-09-26T00:31:44.229Z,99.99
2018-09-26T00:32:44.230Z,99.99
2018-09-26T00:33:44.252Z,99.99
2018-09-26T00:34:44.267Z,99.99
2018-09-26T00:35:59.005Z,99.99
2018-09-26T00:36:44.296Z,99.99
2018-09-26T00:39:44.371Z,99.99
2018-09-26T00:40:44.359Z,99.99
2018-09-26T00:41:44.373Z,99.99
2018-09-26T00:46:44.463Z,99.99
2018-09-26T00:47:44.474Z,99.99
2018-09-26T00:48:44.488Z,99.99
2018-09-26T00:49:44.550Z,99.99
2018-09-26T00:50:44.566Z,99.99
2018-09-26T00:51:44.540Z,99.99
2018-09-26T00:52:44.555Z,99.99
2018-09-26T00:53:44.574Z,99.99
2018-09-26T00:54:44.595Z,99.99
2018-09-26T00:55:44.610Z,99.99
2018-09-26T00:56:44.366Z,99.99
2018-09-26T00:57:44.378Z,99.99
2018-09-26T00:58:44.651Z,99.99
2018-09-26T00:59:44.673Z,99.99
2018-09-26T01:02:44.718Z,99.99
2018-09-26T01:03:44.476Z,99.99
2018-09-26T01:04:44.751Z,99.99
2018-09-26T01:05:44.766Z,99.99
2018-09-26T01:06:44.827Z,99.99
2018-09-26T01:07:59.458Z,99.99
2018-09-26T01:08:44.818Z,99.99
2018-09-26T01:09:44.833Z,99.99
2018-09-26T01:10:44.846Z,99.99
2018-09-26T01:11:44.863Z,99.99
2018-09-26T01:12:44.623Z,99.99
2018-09-26T01:13:44.678Z,99.99
2018-09-26T01:14:44.911Z,99.99
2018-09-26T01:16:44.943Z,99.99
2018-09-26T01:17:44.960Z,99.99
2018-09-26T01:18:44.719Z,99.99
2018-09-26T01:19:44.992Z,99.99
2018-09-26T01:20:45.011Z,99.99
2018-09-26T01:21:45.028Z,99.99
2018-09-26T01:22:45.041Z,99.99
2018-09-26T01:23:59.720Z,99.99
2018-09-26T01:24:45.075Z,99.99
2018-09-26T01:25:45.090Z,99.99
2018-09-26T01:26:44.849Z,99.99
2018-09-26T01:27:45.122Z,99.99
2018-09-26T01:28:45.136Z,99.99
2018-09-26T01:29:45.152Z,99.99
2018-09-26T01:30:45.172Z,99.99
2018-09-26T01:31:45.185Z,99.99
2018-09-26T01:32:45.201Z,99.99
2018-09-26T01:33:45.218Z,99.99
2018-09-26T01:35:45.253Z,99.99
2018-09-26T01:36:45.011Z,99.99
2018-09-26T01:37:45.289Z,99.99
2018-09-26T01:38:45.299Z,99.99
2018-09-26T01:39:59.974Z,99.99
2018-09-26T01:40:45.334Z,99.99
2018-09-26T01:41:45.351Z,99.99
2018-09-26T01:42:45.364Z,99.99
2018-09-26T01:43:45.378Z,99.99
2018-09-26T01:44:45.396Z,99.99
2018-09-26T01:45:45.411Z,99.99
2018-09-26T01:46:45.170Z,99.99
2018-09-26T01:47:45.454Z,99.99
2018-09-26T01:48:45.464Z,99.99
2018-09-26T01:50:45.491Z,99.99
2018-09-26T01:51:45.507Z,99.99
2018-09-26T01:52:45.522Z,99.99
2018-09-26T01:53:45.539Z,99.99
2018-09-26T01:54:45.559Z,99.99
2018-09-26T01:56:00.232Z,99.99
2018-09-26T01:56:45.624Z,99.99
2018-09-26T01:57:45.604Z,99.99
2018-09-26T01:58:45.621Z,99.99
2018-09-26T01:59:45.638Z,99.99
2018-09-26T02:00:45.656Z,99.99
2018-09-26T02:01:45.415Z,99.99
2018-09-26T02:02:45.683Z,99.99
2018-09-26T02:05:45.732Z,99.99
2018-09-26T02:07:45.763Z,99.99
2018-09-26T02:08:45.780Z,99.99
2018-09-26T02:09:45.797Z,99.99
2018-09-26T02:11:00.472Z,99.99
2018-09-26T02:11:45.828Z,99.99
2018-09-26T02:12:45.845Z,99.99
2018-09-26T02:13:45.860Z,99.99
2018-09-26T02:14:45.875Z,99.99
2018-09-26T02:15:45.892Z,99.99
2018-09-26T02:16:45.907Z,99.99
2018-09-26T02:17:45.923Z,99.99
2018-09-26T02:18:45.941Z,99.99
2018-09-26T02:20:45.971Z,99.99
2018-09-26T02:21:45.987Z,99.99
2018-09-26T02:22:45.745Z,99.99
2018-09-26T02:23:46.225Z,99.99
2018-09-26T02:24:45.781Z,99.99
2018-09-26T02:25:46.051Z,99.99
2018-09-26T02:26:46.067Z,99.99
2018-09-26T02:27:46.086Z,99.99
2018-09-26T02:28:46.098Z,99.99
2018-09-26T02:29:46.112Z,99.99
2018-09-26T02:31:45.888Z,99.99
2018-09-26T02:32:46.162Z,99.99
2018-09-26T02:33:46.179Z,99.99
2018-09-26T02:34:46.193Z,99.99
2018-09-26T02:35:46.216Z,99.99
2018-09-26T02:37:46.242Z,99.99
2018-09-26T02:38:46.260Z,99.99
2018-09-26T02:39:46.277Z,99.99
2018-09-26T02:40:46.290Z,99.99
2018-09-26T02:41:46.303Z,99.99
2018-09-26T02:43:00.981Z,99.99
2018-09-26T02:43:46.337Z,99.99
2018-09-26T02:44:46.356Z,99.99
2018-09-26T02:45:46.370Z,99.99
2018-09-26T02:46:46.387Z,99.99
2018-09-26T02:47:46.504Z,99.99
2018-09-26T02:48:46.158Z,99.99
2018-09-26T02:49:46.446Z,99.99
2018-09-26T02:51:46.470Z,99.99
2018-09-26T02:53:46.496Z,99.99
2018-09-26T02:54:46.510Z,99.99
2018-09-26T02:55:46.791Z,99.99
2018-09-26T02:56:46.287Z,99.99
2018-09-26T02:57:46.564Z,99.99
2018-09-26T02:59:01.236Z,99.99
2018-09-26T02:59:46.593Z,99.99
2018-09-26T03:00:46.350Z,99.99
2018-09-26T03:01:46.627Z,99.99
2018-09-26T03:03:46.655Z,99.99
2018-09-26T03:04:46.671Z,99.99
2018-09-26T03:05:46.688Z,99.99
2018-09-26T03:06:46.708Z,99.99
2018-09-26T03:07:46.724Z,99.99
2018-09-26T03:08:46.479Z,99.99
2018-09-26T03:09:46.754Z,99.99
2018-09-26T03:10:46.863Z,99.99
2018-09-26T03:11:46.808Z,99.99
2018-09-26T03:12:46.797Z,99.99
2018-09-26T03:13:46.826Z,99.99
2018-09-26T03:15:01.491Z,99.99
2018-09-26T03:15:46.846Z,99.99
2018-09-26T03:16:46.866Z,99.99
2018-09-26T03:17:47.086Z,99.99
2018-09-26T03:18:46.898Z,99.99
2018-09-26T03:19:46.910Z,99.99
2018-09-26T03:20:46.923Z,99.99
2018-09-26T03:21:46.944Z,99.99
2018-09-26T03:22:46.958Z,99.99
2018-09-26T03:24:47.000Z,99.99
2018-09-26T03:25:47.017Z,99.99
2018-09-26T03:26:46.764Z,99.99
2018-09-26T03:27:47.036Z,99.99
2018-09-26T03:28:47.058Z,99.99
2018-09-26T03:29:47.069Z,99.99
2018-09-26T03:31:01.745Z,99.99
2018-09-26T03:31:47.112Z,99.99
2018-09-26T03:32:47.132Z,99.99
2018-09-26T03:33:47.308Z,99.99
2018-09-26T03:34:47.147Z,99.99
2018-09-26T03:35:47.165Z,99.99
2018-09-26T03:36:47.185Z,99.99
2018-09-26T03:37:47.193Z,99.99
2018-09-26T03:38:47.311Z,99.99
2018-09-26T03:39:47.233Z,99.99
2018-09-26T03:40:47.250Z,99.99
2018-09-26T03:41:47.259Z,99.99
2018-09-26T03:42:47.271Z,99.99
2018-09-26T03:43:47.290Z,99.99
2018-09-26T03:44:47.319Z,99.99
2018-09-26T03:46:01.991Z,99.99
2018-09-26T03:46:47.340Z,99.99
2018-09-26T03:47:47.354Z,99.99
2018-09-26T03:48:47.372Z,99.99
2018-09-26T03:49:47.488Z,99.99
2018-09-26T03:50:47.421Z,99.99
2018-09-26T03:51:47.418Z,99.99
2018-09-26T03:52:47.435Z,99.99
2018-09-26T03:53:47.455Z,99.99
2018-09-26T03:55:47.483Z,99.99
2018-09-26T03:56:47.243Z,99.99
2018-09-26T03:57:47.516Z,99.99
2018-09-26T03:58:47.533Z,99.99
2018-09-26T03:59:47.549Z,99.99
2018-09-26T04:00:47.305Z,99.99
2018-09-26T04:01:47.680Z,99.99
2018-09-26T04:02:47.600Z,99.99
2018-09-26T04:03:47.620Z,99.99
2018-09-26T04:04:47.745Z,99.99
2018-09-26T04:05:47.643Z,99.99
2018-09-26T04:06:47.659Z,99.99
2018-09-26T04:07:47.675Z,99.99
2018-09-26T04:08:47.692Z,99.99
2018-09-26T04:10:47.723Z,99.99
2018-09-26T04:11:47.741Z,99.99
2018-09-26T04:13:47.771Z,99.99
2018-09-26T04:14:47.791Z,99.99
2018-09-26T04:15:48.005Z,99.99
2018-09-26T04:16:47.820Z,99.99
2018-09-26T04:18:02.494Z,99.99
2018-09-26T04:18:47.952Z,99.99
2018-09-26T04:19:47.872Z,99.99
2018-09-26T04:20:47.882Z,99.99
2018-09-26T04:21:47.899Z,99.99
2018-09-26T04:22:47.915Z,99.99
2018-09-26T04:23:47.979Z,99.99
2018-09-26T04:24:47.949Z,99.99
2018-09-26T04:25:47.969Z,99.99
2018-09-26T04:26:47.932Z,99.99
2018-09-26T04:27:48.361Z,99.99
2018-09-26T04:28:48.020Z,99.99
2018-09-26T04:29:48.068Z,99.99
2018-09-26T04:30:48.107Z,99.99
2018-09-26T04:31:48.261Z,99.99
2018-09-26T04:32:48.437Z,99.99
2018-09-26T04:34:02.753Z,99.99
2018-09-26T04:34:48.109Z,99.99
2018-09-26T04:35:48.124Z,99.99
2018-09-26T04:36:47.884Z,99.99
2018-09-26T04:37:48.161Z,99.99
2018-09-26T04:38:48.415Z,99.99
2018-09-26T04:39:48.195Z,99.99
2018-09-26T04:40:48.206Z,99.99
2018-09-26T04:41:48.228Z,99.99
2018-09-26T04:42:48.238Z,99.99
2018-09-26T04:43:48.255Z,99.99
2018-09-26T04:44:48.275Z,99.99
2018-09-26T04:45:48.286Z,99.99
2018-09-26T04:46:48.313Z,99.99
2018-09-26T04:47:48.322Z,99.99
2018-09-26T04:48:48.337Z,99.99
2018-09-26T04:50:03.111Z,99.99
2018-09-26T04:51:48.390Z,99.99
2018-09-26T04:52:48.399Z,99.99
2018-09-26T04:53:48.414Z,99.99
2018-09-26T04:54:48.430Z,99.99
2018-09-26T04:55:48.456Z,99.99
2018-09-26T04:56:48.465Z,99.99
2018-09-26T04:57:48.259Z,99.99
2018-09-26T04:58:48.239Z,99.99
2018-09-26T05:00:48.529Z,99.99
2018-09-26T05:01:48.544Z,99.99
2018-09-26T05:02:48.578Z,99.99
2018-09-26T05:03:48.579Z,99.99
2018-09-26T05:04:48.594Z,99.99
2018-09-26T05:06:03.270Z,99.99
2018-09-26T05:06:48.629Z,99.99
2018-09-26T05:07:48.645Z,99.99
2018-09-26T05:08:48.680Z,99.99
2018-09-26T05:09:48.674Z,99.99
2018-09-26T05:10:48.690Z,99.99
2018-09-26T05:11:48.707Z,99.99
2018-09-26T05:12:48.723Z,99.99
2018-09-26T05:13:48.740Z,99.99
2018-09-26T05:14:48.598Z,99.99
2018-09-26T05:15:48.773Z,99.99
2018-09-26T05:16:48.788Z,99.99
2018-09-26T05:17:48.806Z,99.99
2018-09-26T05:18:48.821Z,99.99
2018-09-26T05:19:48.841Z,99.99
2018-09-26T05:21:03.515Z,99.99
2018-09-26T05:21:48.868Z,99.99
2018-09-26T05:22:49.028Z,99.99
2018-09-26T05:23:48.904Z,99.99
2018-09-26T05:24:48.923Z,99.99
2018-09-26T05:26:48.953Z,99.99
2018-09-26T05:27:48.970Z,99.99
2018-09-26T05:28:48.728Z,99.99
2018-09-26T05:29:49.004Z,99.99
2018-09-26T05:30:49.030Z,99.99
2018-09-26T05:31:49.036Z,99.99
2018-09-26T05:32:48.795Z,99.99
2018-09-26T05:33:49.069Z,99.99
2018-09-26T05:34:49.083Z,99.99
2018-09-26T05:35:49.099Z,99.99
2018-09-26T05:36:49.117Z,99.99
2018-09-26T05:37:49.136Z,99.99
2018-09-26T05:38:49.151Z,99.99
2018-09-26T05:39:49.165Z,99.99
2018-09-26T05:40:49.186Z,99.99
2018-09-26T05:41:49.436Z,99.99
2018-09-26T05:42:48.961Z,99.99
2018-09-26T05:43:49.232Z,99.99
2018-09-26T05:44:48.992Z,99.77
2018-09-26T05:45:49.269Z,99.4
2018-09-26T05:46:49.284Z,99.4
2018-09-26T05:47:49.303Z,99.4
2018-09-26T05:48:49.316Z,99.02
2018-09-26T05:49:49.335Z,98.64
2018-09-26T05:50:49.352Z,98.54
2018-09-26T05:51:49.370Z,98.07
2018-09-26T05:53:04.044Z,97.74
2018-09-26T05:53:49.400Z,97.45
2018-09-26T05:54:49.419Z,96.69
2018-09-26T05:55:49.434Z,96.41
2018-09-26T05:56:49.460Z,96.03
2018-09-26T05:57:49.471Z,94.79
2018-09-26T05:59:49.507Z,94.18
2018-09-26T06:00:49.525Z,93.6
2018-09-26T06:02:49.562Z,93.23
2018-09-26T06:03:49.321Z,92.56
2018-09-26T06:04:49.595Z,91.89
2018-09-26T06:05:49.615Z,91.33
2018-09-26T06:06:49.632Z,90.52
2018-09-26T06:07:49.653Z,90.42
2018-09-26T06:09:04.331Z,90.42
2018-09-26T06:09:49.689Z,90.33
2018-09-26T06:10:49.708Z,89.75
2018-09-26T06:11:49.727Z,89.28
2018-09-26T06:12:49.851Z,89.37
2018-09-26T06:13:49.764Z,89.37
2018-09-26T06:14:49.783Z,88.75
2018-09-26T06:15:49.802Z,88.18
2018-09-26T06:16:49.818Z,88.18
2018-09-26T06:17:49.580Z,87.52
2018-09-26T06:18:49.862Z,87.9
2018-09-26T06:20:49.896Z,87.04
2018-09-26T06:21:49.918Z,86.94
2018-09-26T06:22:49.937Z,86.38
2018-09-26T06:23:49.958Z,86.38
2018-09-26T06:25:04.632Z,85.9
2018-09-26T06:25:49.994Z,86.18
2018-09-26T06:26:50.031Z,85.24
2018-09-26T06:27:50.035Z,85.37
2018-09-26T06:28:50.050Z,85.85
2018-09-26T06:29:49.808Z,85.24
2018-09-26T06:30:50.084Z,85.18
2018-09-26T06:31:50.161Z,84.8
2018-09-26T06:34:50.242Z,83.47
2018-09-26T06:35:50.186Z,83.47
2018-09-26T06:36:50.205Z,83.75
2018-09-26T06:37:50.219Z,82.93
2018-09-26T06:38:50.239Z,82.93
2018-09-26T06:39:50.358Z,82.08
2018-09-26T06:41:04.939Z,82.65
2018-09-26T06:41:50.296Z,82.37
2018-09-26T06:42:50.318Z,82.08
2018-09-26T06:43:50.340Z,80.94
2018-09-26T06:44:50.357Z,80.94
2018-09-26T06:45:50.379Z,80.94
2018-09-26T06:46:50.397Z,81.03
2018-09-26T06:47:50.421Z,80.18
2018-09-26T06:48:50.180Z,80.36
2018-09-26T06:49:50.457Z,80.36
2018-09-26T06:51:50.500Z,80.65
2018-09-26T06:52:50.517Z,80.84
2018-09-26T06:53:50.554Z,80.27
2018-09-26T06:54:50.558Z,80.65
2018-09-26T06:56:05.238Z,80.94
2018-09-26T06:56:50.599Z,80.84
2018-09-26T06:57:50.624Z,80.46
2018-09-26T06:58:50.636Z,80.46
2018-09-26T06:59:50.657Z,80.46
2018-09-26T07:00:50.675Z,80.75
2018-09-26T07:01:50.697Z,80.55
2018-09-26T07:02:50.717Z,80.65
2018-09-26T07:03:50.740Z,81.03
2018-09-26T07:04:50.753Z,80.84
2018-09-26T07:05:50.771Z,80.18
2018-09-26T07:06:50.794Z,80.84
2018-09-26T07:07:50.815Z,80.55
2018-09-26T07:08:50.834Z,80.94
2018-09-26T07:09:50.855Z,80.46
2018-09-26T07:10:50.877Z,80.18
2018-09-26T07:11:50.635Z,79.7
2018-09-26T07:12:50.919Z,79.99
2018-09-26T07:13:50.941Z,80.27
2018-09-26T07:14:50.697Z,79.8
2018-09-26T07:15:50.972Z,80.08
2018-09-26T07:16:50.996Z,80.18
2018-09-26T07:17:51.015Z,80.27
2018-09-26T07:18:51.031Z,80.18
2018-09-26T07:19:51.055Z,80.36
2018-09-26T07:21:50.832Z,79.7
2018-09-26T07:22:51.116Z,79.99
2018-09-26T07:23:51.136Z,79.99
2018-09-26T07:24:51.147Z,79.8
2018-09-26T07:25:51.166Z,79.46
2018-09-26T07:26:51.197Z,78.12
2018-09-26T07:28:05.865Z,77.83
2018-09-26T07:28:50.969Z,77.74
2018-09-26T07:29:51.249Z,77.01
2018-09-26T07:30:51.266Z,75.53
2018-09-26T07:31:51.035Z,74.48
2018-09-26T07:32:51.309Z,73.47
2018-09-26T07:33:51.329Z,72.89
2018-09-26T07:34:51.354Z,72.51
2018-09-26T07:35:51.373Z,72.23
2018-09-26T07:36:51.137Z,72.51
2018-09-26T07:37:51.416Z,71.75
2018-09-26T07:38:51.281Z,70.79
2018-09-26T07:39:51.463Z,71.31
2018-09-26T07:40:51.231Z,71.59
2018-09-26T07:41:51.507Z,70.7
2018-09-26T07:42:51.530Z,71.37
2018-09-26T07:44:06.216Z,71.66
2018-09-26T07:44:51.575Z,71.78
2018-09-26T07:45:51.797Z,71.12
2018-09-26T07:46:51.361Z,70.73
2018-09-26T07:47:51.644Z,70.36
2018-09-26T07:48:51.667Z,69.34
2018-09-26T07:49:51.688Z,69.43
2018-09-26T07:50:51.708Z,68.67
2018-09-26T07:51:51.477Z,68.19
2018-09-26T07:52:51.773Z,68.04
2018-09-26T07:53:51.781Z,67.75
2018-09-26T07:54:51.799Z,67.46
2018-09-26T07:55:51.825Z,67.36
2018-09-26T07:56:51.588Z,67.46
2018-09-26T07:57:51.871Z,66.25
2018-09-26T07:58:51.635Z,65.36
2018-09-26T08:00:06.629Z,65.77
2018-09-26T08:00:51.701Z,66.16
2018-09-26T08:01:51.963Z,64.91
2018-09-26T08:02:51.983Z,65.01
2018-09-26T08:03:52.007Z,64.62
2018-09-26T08:04:51.777Z,64.28
2018-09-26T08:05:51.837Z,63.96
2018-09-26T08:06:52.080Z,63.86
2018-09-26T08:07:51.848Z,62.94
2018-09-26T08:08:51.867Z,62.17
2018-09-26T08:09:52.151Z,61.79
2018-09-26T08:10:52.175Z,61.72
2018-09-26T08:11:52.606Z,61.98
2018-09-26T08:12:52.223Z,62.27
2018-09-26T08:13:51.985Z,62.17
2018-09-26T08:14:52.266Z,62.62
2018-09-26T08:16:06.951Z,63.29
2018-09-26T08:16:52.313Z,63
2018-09-26T08:17:52.338Z,63.1
2018-09-26T08:18:52.363Z,62.71
2018-09-26T08:19:52.484Z,63.1
2018-09-26T08:20:52.408Z,63.86
2018-09-26T08:21:52.432Z,64.12
2018-09-26T08:23:52.378Z,64.31
2018-09-26T08:24:52.504Z,65.36
2018-09-26T08:25:52.527Z,65.64
2018-09-26T08:26:52.546Z,65.45
2018-09-26T08:27:52.571Z,64.4
2018-09-26T08:28:52.598Z,64.53
2018-09-26T08:29:52.696Z,63.48
2018-09-26T08:31:07.312Z,62.55
2018-09-26T08:31:52.409Z,62.46
2018-09-26T08:32:52.688Z,62.27
2018-09-26T08:33:52.454Z,62.46
2018-09-26T08:34:52.734Z,61.88
2018-09-26T08:35:52.758Z,61.41
2018-09-26T08:36:52.782Z,61.69
2018-09-26T08:37:52.806Z,61.6
2018-09-26T08:38:52.832Z,61.69
2018-09-26T08:39:52.851Z,61.05
2018-09-26T08:40:52.876Z,61.12
2018-09-26T08:41:52.692Z,61.41
2018-09-26T08:42:52.930Z,61.51
2018-09-26T08:43:52.765Z,61.54
2018-09-26T08:44:52.970Z,61.63
2018-09-26T08:45:52.995Z,60.1
2018-09-26T08:46:53.019Z,60.86
2018-09-26T08:47:52.790Z,60.48
2018-09-26T08:48:53.064Z,60.48
2018-09-26T08:49:53.089Z,60.03
2018-09-26T08:50:53.112Z,59.27
2018-09-26T08:51:53.133Z,59.72
2018-09-26T08:52:53.167Z,59.75
2018-09-26T08:53:53.438Z,59.36
2018-09-26T08:55:53.232Z,59.45
2018-09-26T08:56:53.250Z,59.81
2018-09-26T08:57:53.276Z,59.52
2018-09-26T08:59:53.549Z,60
2018-09-26T09:00:53.345Z,60.67
2018-09-26T09:01:53.115Z,59.97
2018-09-26T09:03:08.053Z,60.26
2018-09-26T09:03:53.156Z,60.45
2018-09-26T09:04:53.444Z,61.12
2018-09-26T09:06:53.484Z,60.58
2018-09-26T09:07:53.505Z,60.67
2018-09-26T09:08:53.605Z,61.54
2018-09-26T09:09:53.557Z,61.72
2018-09-26T09:10:53.318Z,61.25
2018-09-26T09:11:53.598Z,61.44
2018-09-26T09:12:53.621Z,61.31
2018-09-26T09:13:53.388Z,61.25
2018-09-26T09:14:54.274Z,61.15
2018-09-26T09:15:53.691Z,61.25
2018-09-26T09:16:53.711Z,61.34
2018-09-26T09:19:08.418Z,61.31
2018-09-26T09:19:53.524Z,61.31
2018-09-26T09:21:53.827Z,60.58
2018-09-26T09:22:53.591Z,60.29
2018-09-26T09:23:53.886Z,59.91
2018-09-26T09:24:53.635Z,60.58
2018-09-26T09:25:53.659Z,60.7
2018-09-26T09:26:53.682Z,59.45
2018-09-26T09:27:53.705Z,59.75
2018-09-26T09:28:53.727Z,59.17
2018-09-26T09:29:54.016Z,58.31
2018-09-26T09:30:53.774Z,57.83
2018-09-26T09:31:54.058Z,57.83
2018-09-26T09:32:54.077Z,57.45
2018-09-26T09:33:53.851Z,58.34
2018-09-26T09:35:08.783Z,57.28
2018-09-26T09:35:54.147Z,57.38
2018-09-26T09:36:54.172Z,57.19
2018-09-26T09:37:54.192Z,56.71
2018-09-26T09:38:54.216Z,55.85
2018-09-26T09:39:54.243Z,55.11
2018-09-26T09:41:54.285Z,54.56
2018-09-26T09:42:54.306Z,54.37
2018-09-26T09:43:54.419Z,54.88
2018-09-26T09:46:54.409Z,52.12
2018-09-26T09:47:54.428Z,51.64
2018-09-26T09:48:54.458Z,51.73
2018-09-26T09:49:54.474Z,51.42
2018-09-26T09:51:09.159Z,50.56
2018-09-26T09:52:54.548Z,50.27
2018-09-26T09:53:54.311Z,50.17
2018-09-26T09:54:54.593Z,50.27
2018-09-26T09:55:54.618Z,49.38
2018-09-26T09:56:54.646Z,50.34
2018-09-26T09:57:54.763Z,51.18
2018-09-26T09:58:54.430Z,51.37
2018-09-26T09:59:54.744Z,50.82
2018-09-26T10:00:54.741Z,50.92
2018-09-26T10:01:54.760Z,51.01
2018-09-26T10:02:55.042Z,51.1
2018-09-26T10:03:54.602Z,51.2
2018-09-26T10:04:54.575Z,50.34
2018-09-26T10:06:09.519Z,51.4
2018-09-26T10:06:54.889Z,51.3
2018-09-26T10:07:54.647Z,50.73
2018-09-26T10:08:55.136Z,51.59
2018-09-26T10:09:54.955Z,51.71
2018-09-26T10:11:55.001Z,50.65
2018-09-26T10:12:55.025Z,50.27
2018-09-26T10:14:55.078Z,49.5
2018-09-26T10:15:55.095Z,49.38
2018-09-26T10:16:55.122Z,49.19
2018-09-26T10:17:55.149Z,49.48
2018-09-26T10:18:55.169Z,49.57
2018-09-26T10:19:55.191Z,49.76
2018-09-26T10:20:55.219Z,49.57
2018-09-26T10:21:55.242Z,50.34
2018-09-26T10:22:55.262Z,49.96
2018-09-26T10:23:55.288Z,49.96
2018-09-26T10:25:55.336Z,49.6
2018-09-26T10:26:55.460Z,49.88
2018-09-26T10:27:55.124Z,49.79
2018-09-26T10:28:55.407Z,49.5
2018-09-26T10:29:55.431Z,49.12
2018-09-26T10:30:55.456Z,48.64
2018-09-26T10:32:55.500Z,48.07
2018-09-26T10:33:55.531Z,47.94
2018-09-26T10:34:55.748Z,48.44
2018-09-26T10:35:55.572Z,48.35
2018-09-26T10:36:55.595Z,47.68
2018-09-26T10:38:10.361Z,48.16
2018-09-26T10:38:55.646Z,47.58
2018-09-26T10:39:55.671Z,47.87
2018-09-26T10:40:55.845Z,47.68
2018-09-26T10:41:55.716Z,47.68
2018-09-26T10:42:55.746Z,47.41
2018-09-26T10:43:55.770Z,46.94
2018-09-26T10:44:55.792Z,46.72
2018-09-26T10:45:55.809Z,47.01
2018-09-26T10:46:55.579Z,46.36
2018-09-26T10:47:55.597Z,47.3
2018-09-26T10:48:55.878Z,47.13
2018-09-26T10:49:55.908Z,47.03
2018-09-26T10:50:55.932Z,46.26
2018-09-26T10:51:55.955Z,46.65
2018-09-26T10:52:55.980Z,46.45
2018-09-26T10:54:10.667Z,46.07
2018-09-26T10:54:56.020Z,46.53
2018-09-26T10:55:56.046Z,46.53
2018-09-26T10:56:56.069Z,48.16
2018-09-26T10:57:56.092Z,47.77
2018-09-26T10:58:56.115Z,47.13
2018-09-26T10:59:56.139Z,47.49
2018-09-26T11:00:56.164Z,47.2
2018-09-26T11:01:56.245Z,47.3
2018-09-26T11:02:56.215Z,46.43
2018-09-26T11:03:55.977Z,46.24
2018-09-26T11:04:56.260Z,47.85
2018-09-26T11:05:56.282Z,47.66
2018-09-26T11:06:56.303Z,47.39
2018-09-26T11:07:56.325Z,47.68
2018-09-26T11:08:56.347Z,47.01
2018-09-26T11:10:11.088Z,46.72
2018-09-26T11:10:56.399Z,46.81
2018-09-26T11:11:56.167Z,47.46
2018-09-26T11:12:56.185Z,47.27
2018-09-26T11:13:56.466Z,46.98
2018-09-26T11:14:56.233Z,47.46
2018-09-26T11:15:56.510Z,47.27
2018-09-26T11:16:56.538Z,46.7
2018-09-26T11:17:56.560Z,47.75
2018-09-26T11:18:56.687Z,47.2
2018-09-26T11:20:56.627Z,47.2
2018-09-26T11:21:56.663Z,46.53
2018-09-26T11:22:56.684Z,47.17
2018-09-26T11:23:56.698Z,46.62
2018-09-26T11:24:56.724Z,46.79
2018-09-26T11:26:11.453Z,47.3
2018-09-26T11:26:56.769Z,47.39
2018-09-26T11:27:56.532Z,47.01
2018-09-26T11:28:56.812Z,46.81
2018-09-26T11:30:56.859Z,48.35
2018-09-26T11:31:56.886Z,47.58
2018-09-26T11:32:56.905Z,47.3
2018-09-26T11:33:56.931Z,47.87
2018-09-26T11:34:56.957Z,47.39
2018-09-26T11:35:56.973Z,47.3
2018-09-26T11:36:57.029Z,46.81
2018-09-26T11:37:57.021Z,47.1
2018-09-26T11:38:57.045Z,47.3
2018-09-26T11:39:57.067Z,48.23
2018-09-26T11:41:11.754Z,48.23
2018-09-26T11:41:57.112Z,48.13
2018-09-26T11:42:57.143Z,47.75
2018-09-26T11:43:57.161Z,47.77
2018-09-26T11:44:57.185Z,47.58
2018-09-26T11:45:57.205Z,47.58
2018-09-26T11:47:56.995Z,47.58
2018-09-26T11:48:57.017Z,47.58
2018-09-26T11:49:57.308Z,47.97
2018-09-26T11:50:57.320Z,47.87
2018-09-26T11:51:57.344Z,47.77
2018-09-26T11:52:57.368Z,46.91
2018-09-26T11:53:57.390Z,46.34
2018-09-26T11:54:57.411Z,47.2
2018-09-26T11:55:57.550Z,46.91
2018-09-26T11:56:57.468Z,46.62
2018-09-26T11:57:57.486Z,46.81
2018-09-26T11:58:57.505Z,45.98
2018-09-26T11:59:57.527Z,46.05
2018-09-26T12:00:57.553Z,46.72
2018-09-26T12:01:57.573Z,45.68
2018-09-26T12:02:57.600Z,46.65
2018-09-26T12:03:57.722Z,46.84
2018-09-26T12:04:57.642Z,47.41
2018-09-26T12:06:57.861Z,45.98
2018-09-26T12:07:57.711Z,45.81
2018-09-26T12:08:57.734Z,45.52
2018-09-26T12:09:57.757Z,45.71
2018-09-26T12:10:57.781Z,45.4
2018-09-26T12:11:57.811Z,46.19
2018-09-26T12:13:12.493Z,46.58
2018-09-26T12:13:58.042Z,46.09
2018-09-26T12:14:57.875Z,45.81
2018-09-26T12:15:57.897Z,45.71
2018-09-26T12:16:57.918Z,45.61
2018-09-26T12:17:57.944Z,45.98
2018-09-26T12:18:57.965Z,46.07
2018-09-26T12:19:57.991Z,46.07
2018-09-26T12:21:58.054Z,46.17
2018-09-26T12:22:58.057Z,46.17
2018-09-26T12:23:58.089Z,46.36
2018-09-26T12:24:58.154Z,46.36
2018-09-26T12:25:58.130Z,46.09
2018-09-26T12:26:58.213Z,45.23
2018-09-26T12:27:58.295Z,45.71
2018-09-26T12:29:12.863Z,45.71
2018-09-26T12:29:58.221Z,45.71
2018-09-26T12:30:58.243Z,45.71
2018-09-26T12:31:58.009Z,45.81
2018-09-26T12:32:58.295Z,46.19
2018-09-26T12:33:58.060Z,45.81
2018-09-26T12:34:58.590Z,45.61
2018-09-26T12:36:58.388Z,45.32
2018-09-26T12:37:58.148Z,45.81
2018-09-26T12:38:58.430Z,45.81
2018-09-26T12:39:58.452Z,45.42
2018-09-26T12:40:58.477Z,45.81
2018-09-26T12:41:58.501Z,44.65
2018-09-26T12:42:58.524Z,45.32
2018-09-26T12:43:58.553Z,44.94
2018-09-26T12:45:13.230Z,45.32
2018-09-26T12:45:58.592Z,44.84
2018-09-26T12:46:58.615Z,45.32
2018-09-26T12:47:58.845Z,44.94
2018-09-26T12:48:58.662Z,46.09
2018-09-26T12:49:58.428Z,45.42
2018-09-26T12:50:58.710Z,45.42
2018-09-26T12:51:58.735Z,45.81
2018-09-26T12:52:58.498Z,45.32
2018-09-26T12:53:59.125Z,44.17
2018-09-26T12:54:58.806Z,45.52
2018-09-26T12:56:58.849Z,44.65
2018-09-26T12:57:58.884Z,45.01
2018-09-26T12:58:58.898Z,45.4
2018-09-26T12:59:58.925Z,45.59
2018-09-26T13:01:13.607Z,45.21
2018-09-26T13:01:58.970Z,45.3
2018-09-26T13:02:58.990Z,46.07
2018-09-26T13:03:59.010Z,45.88
2018-09-26T13:04:59.037Z,46.07
2018-09-26T13:05:59.059Z,46.07
2018-09-26T13:06:58.825Z,46.09
2018-09-26T13:07:59.120Z,46.07
2018-09-26T13:09:59.162Z,45.98
2018-09-26T13:10:58.920Z,46.19
2018-09-26T13:11:59.199Z,45.9
2018-09-26T13:12:59.228Z,46.09
2018-09-26T13:13:59.247Z,46.19
2018-09-26T13:14:59.269Z,46.19
2018-09-26T13:16:14.025Z,46.09
2018-09-26T13:16:59.060Z,46.28
2018-09-26T13:17:59.344Z,45.45
2018-09-26T13:18:59.450Z,44.84
2018-09-26T13:19:59.389Z,45.71
2018-09-26T13:21:59.435Z,45.71
2018-09-26T13:23:59.224Z,45.68
2018-09-26T13:24:59.507Z,46.67
2018-09-26T13:26:59.551Z,46.67
2018-09-26T13:27:59.574Z,46.77
2018-09-26T13:28:59.339Z,46.28
2018-09-26T13:29:59.625Z,45.71
2018-09-26T13:30:59.737Z,45.61
2018-09-26T13:31:59.666Z,45.81
2018-09-26T13:32:59.691Z,45.61
2018-09-26T13:33:59.712Z,46
2018-09-26T13:34:59.741Z,46.09
2018-09-26T13:35:59.760Z,45.81
2018-09-26T13:36:59.785Z,45.42
2018-09-26T13:37:59.810Z,46.07
2018-09-26T13:38:59.867Z,45.78
2018-09-26T13:40:59.898Z,46.19
2018-09-26T13:42:00.009Z,46.09
2018-09-26T13:42:59.924Z,45.71
2018-09-26T13:43:59.689Z,45.81
2018-09-26T13:44:59.970Z,45.61
2018-09-26T13:45:59.755Z,45.9
2018-09-26T13:47:00.088Z,46.19
2018-09-26T13:48:14.737Z,45.81
2018-09-26T13:49:00.071Z,46.19
2018-09-26T13:50:00.094Z,45.42
2018-09-26T13:50:59.853Z,45.81
2018-09-26T13:52:00.183Z,45.32
2018-09-26T13:52:59.900Z,45.32
2018-09-26T13:53:59.940Z,45.14
2018-09-26T13:54:59.949Z,45.35
2018-09-26T13:55:59.972Z,45.45